sensor_id;sensor_type;location;lat;lon;timestamp;temperature;humidity
13409;DHT22;6775;49.574;11.170;2022-11-04T00:01:46;10.10;99.90
13409;DHT22;6775;49.574;11.170;2022-11-04T00:04:16;10.10;99.90
13409;DHT22;6775;49.574;11.170;2022-11-04T00:06:46;10.20;99.90
13409;DHT22;6775;49.574;11.170;2022-11-04T00:09:16;10.30;99.90
13409;DHT22;6775;49.574;11.170;2022-11-04T00:11:45;10.30;99.90
13409;DHT22;6775;49.574;11.170;2022-11-04T00:14:31;10.40;99.90
13409;DHT22;6775;49.574;11.170;2022-11-04T00:16:59;10.50;99.90
13409;DHT22;6775;49.574;11.170;2022-11-04T00:19:45;10.50;99.90
13409;DHT22;6775;49.574;11.170;2022-11-04T00:22:32;10.60;99.90
13409;DHT22;6775;49.574;11.170;2022-11-04T00:25:18;10.60;99.90
13409;DHT22;6775;49.574;11.170;2022-11-04T00:28:11;10.60;99.90
13409;DHT22;6775;49.574;11.170;2022-11-04T00:30:58;10.70;99.90
13409;DHT22;6775;49.574;11.170;2022-11-04T00:33:48;10.70;99.90
13409;DHT22;6775;49.574;11.170;2022-11-04T00:36:16;10.80;99.90
13409;DHT22;6775;49.574;11.170;2022-11-04T00:38:45;10.80;99.90
13409;DHT22;6775;49.574;11.170;2022-11-04T00:41:13;10.80;99.90
13409;DHT22;6775;49.574;11.170;2022-11-04T00:43:55;10.80;99.90
13409;DHT22;6775;49.574;11.170;2022-11-04T00:46:23;10.80;99.90
13409;DHT22;6775;49.574;11.170;2022-11-04T00:48:51;10.80;99.90
13409;DHT22;6775;49.574;11.170;2022-11-04T00:51:19;10.80;99.90
13409;DHT22;6775;49.574;11.170;2022-11-04T00:53:49;10.80;99.90
13409;DHT22;6775;49.574;11.170;2022-11-04T00:56:18;10.80;99.90
13409;DHT22;6775;49.574;11.170;2022-11-04T00:58:46;10.80;99.90
13409;DHT22;6775;49.574;11.170;2022-11-04T01:01:16;10.80;99.90
13409;DHT22;6775;49.574;11.170;2022-11-04T01:03:45;10.80;99.90
13409;DHT22;6775;49.574;11.170;2022-11-04T01:06:14;10.80;99.90
13409;DHT22;6775;49.574;11.170;2022-11-04T01:08:42;10.80;99.90
13409;DHT22;6775;49.574;11.170;2022-11-04T01:11:12;10.80;99.90
13409;DHT22;6775;49.574;11.170;2022-11-04T01:13:41;10.80;99.90
13409;DHT22;6775;49.574;11.170;2022-11-04T01:16:10;10.80;99.90
13409;DHT22;6775;49.574;11.170;2022-11-04T01:18:39;10.90;99.90
13409;DHT22;6775;49.574;11.170;2022-11-04T01:21:09;10.90;99.90
13409;DHT22;6775;49.574;11.170;2022-11-04T01:23:39;10.90;99.90
13409;DHT22;6775;49.574;11.170;2022-11-04T01:26:07;10.90;99.90
13409;DHT22;6775;49.574;11.170;2022-11-04T01:28:37;11.00;99.90
13409;DHT22;6775;49.574;11.170;2022-11-04T01:31:05;10.90;99.90
13409;DHT22;6775;49.574;11.170;2022-11-04T01:33:34;10.90;99.90
13409;DHT22;6775;49.574;11.170;2022-11-04T01:36:03;10.90;99.90
13409;DHT22;6775;49.574;11.170;2022-11-04T01:38:32;10.90;99.90
13409;DHT22;6775;49.574;11.170;2022-11-04T01:41:00;10.90;99.90
13409;DHT22;6775;49.574;11.170;2022-11-04T01:43:43;10.90;99.90
13409;DHT22;6775;49.574;11.170;2022-11-04T01:46:17;10.90;99.90
13409;DHT22;6775;49.574;11.170;2022-11-04T01:48:48;10.90;99.90
13409;DHT22;6775;49.574;11.170;2022-11-04T01:51:17;10.90;99.90
13409;DHT22;6775;49.574;11.170;2022-11-04T01:53:46;10.90;99.90
13409;DHT22;6775;49.574;11.170;2022-11-04T01:56:17;10.90;99.90
13409;DHT22;6775;49.574;11.170;2022-11-04T01:58:50;10.90;99.90
13409;DHT22;6775;49.574;11.170;2022-11-04T02:01:19;10.90;99.90
13409;DHT22;6775;49.574;11.170;2022-11-04T02:03:49;10.90;99.90
13409;DHT22;6775;49.574;11.170;2022-11-04T02:06:19;10.90;99.90
13409;DHT22;6775;49.574;11.170;2022-11-04T02:08:48;10.90;99.90
13409;DHT22;6775;49.574;11.170;2022-11-04T02:11:16;10.80;99.90
13409;DHT22;6775;49.574;11.170;2022-11-04T02:13:59;10.90;99.90
13409;DHT22;6775;49.574;11.170;2022-11-04T02:16:36;10.90;99.90
13409;DHT22;6775;49.574;11.170;2022-11-04T02:19:23;10.90;99.90
13409;DHT22;6775;49.574;11.170;2022-11-04T02:25:12;10.90;99.90
13409;DHT22;6775;49.574;11.170;2022-11-04T02:28:04;10.90;99.90
13409;DHT22;6775;49.574;11.170;2022-11-04T02:30:40;10.90;99.90
13409;DHT22;6775;49.574;11.170;2022-11-04T02:33:18;10.90;99.90
13409;DHT22;6775;49.574;11.170;2022-11-04T02:35:56;10.90;99.90
13409;DHT22;6775;49.574;11.170;2022-11-04T02:38:35;10.90;99.90
13409;DHT22;6775;49.574;11.170;2022-11-04T02:41:11;10.90;99.90
13409;DHT22;6775;49.574;11.170;2022-11-04T02:43:47;10.80;99.90
13409;DHT22;6775;49.574;11.170;2022-11-04T02:46:19;10.80;99.90
13409;DHT22;6775;49.574;11.170;2022-11-04T02:48:54;10.80;99.90
13409;DHT22;6775;49.574;11.170;2022-11-04T02:51:28;10.80;99.90
13409;DHT22;6775;49.574;11.170;2022-11-04T02:54:01;10.80;99.90
13409;DHT22;6775;49.574;11.170;2022-11-04T02:56:31;10.80;99.90
13409;DHT22;6775;49.574;11.170;2022-11-04T02:59:05;10.80;99.90
13409;DHT22;6775;49.574;11.170;2022-11-04T03:01:38;10.80;99.90
13409;DHT22;6775;49.574;11.170;2022-11-04T03:04:12;10.70;99.90
13409;DHT22;6775;49.574;11.170;2022-11-04T03:06:40;10.80;99.90
13409;DHT22;6775;49.574;11.170;2022-11-04T03:09:10;10.80;99.90
13409;DHT22;6775;49.574;11.170;2022-11-04T03:11:42;10.80;99.90
13409;DHT22;6775;49.574;11.170;2022-11-04T03:14:14;10.70;99.90
13409;DHT22;6775;49.574;11.170;2022-11-04T03:16:47;10.80;99.90
13409;DHT22;6775;49.574;11.170;2022-11-04T03:19:20;10.80;99.90
13409;DHT22;6775;49.574;11.170;2022-11-04T03:21:53;10.80;99.90
13409;DHT22;6775;49.574;11.170;2022-11-04T03:24:23;10.80;99.90
13409;DHT22;6775;49.574;11.170;2022-11-04T03:26:56;10.80;99.90
13409;DHT22;6775;49.574;11.170;2022-11-04T03:29:29;10.80;99.90
13409;DHT22;6775;49.574;11.170;2022-11-04T03:32:05;10.80;99.90
13409;DHT22;6775;49.574;11.170;2022-11-04T03:34:35;10.80;99.90
13409;DHT22;6775;49.574;11.170;2022-11-04T03:37:04;10.80;99.90
13409;DHT22;6775;49.574;11.170;2022-11-04T03:39:32;10.80;99.90
13409;DHT22;6775;49.574;11.170;2022-11-04T03:42:03;10.80;99.90
13409;DHT22;6775;49.574;11.170;2022-11-04T03:44:47;10.80;99.90
13409;DHT22;6775;49.574;11.170;2022-11-04T03:47:18;10.80;99.90
13409;DHT22;6775;49.574;11.170;2022-11-04T03:49:47;10.80;99.90
13409;DHT22;6775;49.574;11.170;2022-11-04T03:52:16;10.80;99.90
13409;DHT22;6775;49.574;11.170;2022-11-04T03:54:45;10.80;99.90
13409;DHT22;6775;49.574;11.170;2022-11-04T03:57:31;10.80;99.90
13409;DHT22;6775;49.574;11.170;2022-11-04T04:00:06;10.80;99.90
13409;DHT22;6775;49.574;11.170;2022-11-04T04:02:45;10.70;99.90
13409;DHT22;6775;49.574;11.170;2022-11-04T04:05:19;10.70;99.90
13409;DHT22;6775;49.574;11.170;2022-11-04T04:07:52;10.70;99.90
13409;DHT22;6775;49.574;11.170;2022-11-04T04:10:28;10.70;99.90
13409;DHT22;6775;49.574;11.170;2022-11-04T04:13:13;10.70;99.90
13409;DHT22;6775;49.574;11.170;2022-11-04T04:15:46;10.70;99.90
13409;DHT22;6775;49.574;11.170;2022-11-04T04:18:23;10.60;99.90
13409;DHT22;6775;49.574;11.170;2022-11-04T04:20:53;10.70;99.90
13409;DHT22;6775;49.574;11.170;2022-11-04T04:23:26;10.70;99.90
13409;DHT22;6775;49.574;11.170;2022-11-04T04:26:14;10.70;99.90
13409;DHT22;6775;49.574;11.170;2022-11-04T04:29:06;10.70;99.90
13409;DHT22;6775;49.574;11.170;2022-11-04T04:31:36;10.70;99.90
13409;DHT22;6775;49.574;11.170;2022-11-04T04:34:21;10.70;99.90
13409;DHT22;6775;49.574;11.170;2022-11-04T04:36:53;10.70;99.90
13409;DHT22;6775;49.574;11.170;2022-11-04T04:39:28;10.70;99.90
13409;DHT22;6775;49.574;11.170;2022-11-04T04:42:30;10.70;99.90
13409;DHT22;6775;49.574;11.170;2022-11-04T04:45:20;10.70;99.90
13409;DHT22;6775;49.574;11.170;2022-11-04T04:47:48;10.70;99.90
13409;DHT22;6775;49.574;11.170;2022-11-04T04:50:19;10.70;99.90
13409;DHT22;6775;49.574;11.170;2022-11-04T04:52:50;10.80;99.90
13409;DHT22;6775;49.574;11.170;2022-11-04T04:55:18;10.80;99.90
13409;DHT22;6775;49.574;11.170;2022-11-04T04:57:46;10.80;99.90
13409;DHT22;6775;49.574;11.170;2022-11-04T05:00:16;10.80;99.90
13409;DHT22;6775;49.574;11.170;2022-11-04T05:02:44;10.70;99.90
13409;DHT22;6775;49.574;11.170;2022-11-04T05:05:12;10.70;99.90
13409;DHT22;6775;49.574;11.170;2022-11-04T05:07:43;10.70;99.90
13409;DHT22;6775;49.574;11.170;2022-11-04T05:10:13;10.70;99.90
13409;DHT22;6775;49.574;11.170;2022-11-04T05:12:42;10.70;99.90
13409;DHT22;6775;49.574;11.170;2022-11-04T05:15:28;10.70;99.90
13409;DHT22;6775;49.574;11.170;2022-11-04T05:17:57;10.70;99.90
13409;DHT22;6775;49.574;11.170;2022-11-04T05:20:26;10.70;99.90
13409;DHT22;6775;49.574;11.170;2022-11-04T05:22:57;10.70;99.90
13409;DHT22;6775;49.574;11.170;2022-11-04T05:25:25;10.70;99.90
13409;DHT22;6775;49.574;11.170;2022-11-04T05:27:53;10.70;99.90
13409;DHT22;6775;49.574;11.170;2022-11-04T05:30:20;10.70;99.90
13409;DHT22;6775;49.574;11.170;2022-11-04T05:32:48;10.70;99.90
13409;DHT22;6775;49.574;11.170;2022-11-04T05:35:16;10.70;99.90
13409;DHT22;6775;49.574;11.170;2022-11-04T05:37:44;10.70;99.90
13409;DHT22;6775;49.574;11.170;2022-11-04T05:40:13;10.70;99.90
13409;DHT22;6775;49.574;11.170;2022-11-04T05:42:41;10.60;99.90
13409;DHT22;6775;49.574;11.170;2022-11-04T05:45:09;10.60;99.90
13409;DHT22;6775;49.574;11.170;2022-11-04T05:47:37;10.60;99.90
13409;DHT22;6775;49.574;11.170;2022-11-04T05:50:05;10.60;99.90
13409;DHT22;6775;49.574;11.170;2022-11-04T05:52:33;10.60;99.90
13409;DHT22;6775;49.574;11.170;2022-11-04T05:55:01;10.60;99.90
13409;DHT22;6775;49.574;11.170;2022-11-04T05:57:30;10.60;99.90
13409;DHT22;6775;49.574;11.170;2022-11-04T05:59:58;10.60;99.90
13409;DHT22;6775;49.574;11.170;2022-11-04T06:02:25;10.60;99.90
13409;DHT22;6775;49.574;11.170;2022-11-04T06:04:53;10.60;99.90
13409;DHT22;6775;49.574;11.170;2022-11-04T06:07:21;10.60;99.90
13409;DHT22;6775;49.574;11.170;2022-11-04T06:09:49;10.60;99.90
13409;DHT22;6775;49.574;11.170;2022-11-04T06:12:17;10.60;99.90
13409;DHT22;6775;49.574;11.170;2022-11-04T06:14:46;10.60;99.90
13409;DHT22;6775;49.574;11.170;2022-11-04T06:17:15;10.70;99.90
13409;DHT22;6775;49.574;11.170;2022-11-04T06:19:43;10.70;99.90
13409;DHT22;6775;49.574;11.170;2022-11-04T06:22:11;10.70;99.90
13409;DHT22;6775;49.574;11.170;2022-11-04T06:24:40;10.70;99.90
13409;DHT22;6775;49.574;11.170;2022-11-04T06:27:08;10.60;99.90
13409;DHT22;6775;49.574;11.170;2022-11-04T06:29:37;10.70;99.90
13409;DHT22;6775;49.574;11.170;2022-11-04T06:32:08;10.70;99.90
13409;DHT22;6775;49.574;11.170;2022-11-04T06:34:36;10.60;99.90
13409;DHT22;6775;49.574;11.170;2022-11-04T06:37:04;10.60;99.90
13409;DHT22;6775;49.574;11.170;2022-11-04T06:39:32;10.60;99.90
13409;DHT22;6775;49.574;11.170;2022-11-04T06:42:00;10.60;99.90
13409;DHT22;6775;49.574;11.170;2022-11-04T06:44:29;10.60;99.90
13409;DHT22;6775;49.574;11.170;2022-11-04T06:46:56;10.60;99.90
13409;DHT22;6775;49.574;11.170;2022-11-04T06:49:26;10.50;99.90
13409;DHT22;6775;49.574;11.170;2022-11-04T06:51:53;10.50;99.90
13409;DHT22;6775;49.574;11.170;2022-11-04T06:54:21;10.50;99.90
13409;DHT22;6775;49.574;11.170;2022-11-04T06:56:49;10.50;99.90
13409;DHT22;6775;49.574;11.170;2022-11-04T06:59:18;10.50;99.90
13409;DHT22;6775;49.574;11.170;2022-11-04T07:01:47;10.50;99.90
13409;DHT22;6775;49.574;11.170;2022-11-04T07:04:16;10.50;99.90
13409;DHT22;6775;49.574;11.170;2022-11-04T07:06:45;10.50;99.90
13409;DHT22;6775;49.574;11.170;2022-11-04T07:09:14;10.50;99.90
13409;DHT22;6775;49.574;11.170;2022-11-04T07:11:43;10.50;99.90
13409;DHT22;6775;49.574;11.170;2022-11-04T07:14:11;10.40;99.90
13409;DHT22;6775;49.574;11.170;2022-11-04T07:16:39;10.40;99.90
13409;DHT22;6775;49.574;11.170;2022-11-04T07:19:06;10.40;99.90
13409;DHT22;6775;49.574;11.170;2022-11-04T07:21:34;10.40;99.90
13409;DHT22;6775;49.574;11.170;2022-11-04T07:24:04;10.50;99.90
13409;DHT22;6775;49.574;11.170;2022-11-04T07:26:32;10.40;99.90
13409;DHT22;6775;49.574;11.170;2022-11-04T07:29:00;10.40;99.90
13409;DHT22;6775;49.574;11.170;2022-11-04T07:31:28;10.40;99.90
13409;DHT22;6775;49.574;11.170;2022-11-04T07:33:56;10.40;99.90
13409;DHT22;6775;49.574;11.170;2022-11-04T07:36:23;10.40;99.90
13409;DHT22;6775;49.574;11.170;2022-11-04T07:38:51;10.40;99.90
13409;DHT22;6775;49.574;11.170;2022-11-04T07:41:21;10.40;99.90
13409;DHT22;6775;49.574;11.170;2022-11-04T07:43:49;10.30;99.90
13409;DHT22;6775;49.574;11.170;2022-11-04T07:46:18;10.40;99.90
13409;DHT22;6775;49.574;11.170;2022-11-04T07:48:46;10.40;99.90
13409;DHT22;6775;49.574;11.170;2022-11-04T07:51:17;10.30;99.90
13409;DHT22;6775;49.574;11.170;2022-11-04T07:53:45;10.30;99.90
13409;DHT22;6775;49.574;11.170;2022-11-04T07:56:13;10.30;99.90
13409;DHT22;6775;49.574;11.170;2022-11-04T07:58:42;10.30;99.90
13409;DHT22;6775;49.574;11.170;2022-11-04T08:01:13;10.30;99.90
13409;DHT22;6775;49.574;11.170;2022-11-04T08:03:41;10.30;99.90
13409;DHT22;6775;49.574;11.170;2022-11-04T08:06:11;10.40;99.90
13409;DHT22;6775;49.574;11.170;2022-11-04T08:08:39;10.40;99.90
13409;DHT22;6775;49.574;11.170;2022-11-04T08:11:10;10.40;99.90
13409;DHT22;6775;49.574;11.170;2022-11-04T08:13:46;10.40;99.90
13409;DHT22;6775;49.574;11.170;2022-11-04T08:16:16;10.50;99.90
13409;DHT22;6775;49.574;11.170;2022-11-04T08:18:45;10.50;99.90
13409;DHT22;6775;49.574;11.170;2022-11-04T08:21:14;10.50;99.90
13409;DHT22;6775;49.574;11.170;2022-11-04T08:23:42;10.50;99.90
13409;DHT22;6775;49.574;11.170;2022-11-04T08:26:14;10.50;99.90
13409;DHT22;6775;49.574;11.170;2022-11-04T08:28:44;10.50;99.90
13409;DHT22;6775;49.574;11.170;2022-11-04T08:31:14;10.50;99.90
13409;DHT22;6775;49.574;11.170;2022-11-04T08:33:42;10.50;99.90
13409;DHT22;6775;49.574;11.170;2022-11-04T08:36:13;10.50;99.90
13409;DHT22;6775;49.574;11.170;2022-11-04T08:38:41;10.50;99.90
13409;DHT22;6775;49.574;11.170;2022-11-04T08:41:10;10.50;99.90
13409;DHT22;6775;49.574;11.170;2022-11-04T08:43:38;10.50;99.90
13409;DHT22;6775;49.574;11.170;2022-11-04T08:46:09;10.40;99.90
13409;DHT22;6775;49.574;11.170;2022-11-04T08:48:38;10.50;99.90
13409;DHT22;6775;49.574;11.170;2022-11-04T08:51:11;10.50;99.90
13409;DHT22;6775;49.574;11.170;2022-11-04T08:53:39;10.50;99.90
13409;DHT22;6775;49.574;11.170;2022-11-04T08:56:09;10.50;99.90
13409;DHT22;6775;49.574;11.170;2022-11-04T08:58:37;10.50;99.90
13409;DHT22;6775;49.574;11.170;2022-11-04T09:01:07;10.50;99.90
13409;DHT22;6775;49.574;11.170;2022-11-04T09:03:36;10.50;99.90
13409;DHT22;6775;49.574;11.170;2022-11-04T09:06:05;10.50;99.90
13409;DHT22;6775;49.574;11.170;2022-11-04T09:08:33;10.50;99.90
13409;DHT22;6775;49.574;11.170;2022-11-04T09:11:05;10.50;99.90
13409;DHT22;6775;49.574;11.170;2022-11-04T09:13:33;10.50;99.90
13409;DHT22;6775;49.574;11.170;2022-11-04T09:16:08;10.50;99.90
13409;DHT22;6775;49.574;11.170;2022-11-04T09:18:36;10.50;99.90
13409;DHT22;6775;49.574;11.170;2022-11-04T09:21:06;10.50;99.90
13409;DHT22;6775;49.574;11.170;2022-11-04T09:23:34;10.60;99.90
13409;DHT22;6775;49.574;11.170;2022-11-04T09:26:04;10.50;99.90
13409;DHT22;6775;49.574;11.170;2022-11-04T09:28:32;10.50;99.90
13409;DHT22;6775;49.574;11.170;2022-11-04T09:31:04;10.50;99.90
13409;DHT22;6775;49.574;11.170;2022-11-04T09:33:33;10.50;99.90
13409;DHT22;6775;49.574;11.170;2022-11-04T09:36:01;10.50;99.90
13409;DHT22;6775;49.574;11.170;2022-11-04T09:38:29;10.40;99.90
13409;DHT22;6775;49.574;11.170;2022-11-04T09:40:58;10.40;99.90
13409;DHT22;6775;49.574;11.170;2022-11-04T09:43:34;10.40;99.90
13409;DHT22;6775;49.574;11.170;2022-11-04T09:46:09;10.40;99.90
13409;DHT22;6775;49.574;11.170;2022-11-04T09:48:42;10.40;99.90
13409;DHT22;6775;49.574;11.170;2022-11-04T09:51:13;10.40;99.90
13409;DHT22;6775;49.574;11.170;2022-11-04T09:54:07;10.40;99.90
13409;DHT22;6775;49.574;11.170;2022-11-04T09:56:38;10.40;99.90
13409;DHT22;6775;49.574;11.170;2022-11-04T09:59:10;10.50;99.90
13409;DHT22;6775;49.574;11.170;2022-11-04T10:01:43;10.50;99.90
13409;DHT22;6775;49.574;11.170;2022-11-04T10:04:23;10.50;99.90
13409;DHT22;6775;49.574;11.170;2022-11-04T10:07:08;10.60;99.90
13409;DHT22;6775;49.574;11.170;2022-11-04T10:09:49;10.60;99.90
13409;DHT22;6775;49.574;11.170;2022-11-04T10:12:29;10.60;99.90
13409;DHT22;6775;49.574;11.170;2022-11-04T10:15:20;10.60;99.90
13409;DHT22;6775;49.574;11.170;2022-11-04T10:18:03;10.60;99.90
13409;DHT22;6775;49.574;11.170;2022-11-04T10:20:47;10.60;99.90
13409;DHT22;6775;49.574;11.170;2022-11-04T10:23:20;10.70;99.90
13409;DHT22;6775;49.574;11.170;2022-11-04T10:25:54;10.70;99.90
13409;DHT22;6775;49.574;11.170;2022-11-04T10:28:29;10.80;99.90
13409;DHT22;6775;49.574;11.170;2022-11-04T10:30:57;10.90;99.90
13409;DHT22;6775;49.574;11.170;2022-11-04T10:33:30;10.90;99.90
13409;DHT22;6775;49.574;11.170;2022-11-04T10:36:01;11.00;99.90
13409;DHT22;6775;49.574;11.170;2022-11-04T10:38:34;11.00;99.90
13409;DHT22;6775;49.574;11.170;2022-11-04T10:41:17;11.10;99.90
13409;DHT22;6775;49.574;11.170;2022-11-04T10:43:47;11.20;99.90
13409;DHT22;6775;49.574;11.170;2022-11-04T10:46:26;11.20;99.90
13409;DHT22;6775;49.574;11.170;2022-11-04T10:49:15;11.30;99.90
13409;DHT22;6775;49.574;11.170;2022-11-04T10:51:55;11.50;99.90
13409;DHT22;6775;49.574;11.170;2022-11-04T10:54:25;11.60;99.90
13409;DHT22;6775;49.574;11.170;2022-11-04T10:56:55;11.70;99.90
13409;DHT22;6775;49.574;11.170;2022-11-04T10:59:26;11.70;99.90
13409;DHT22;6775;49.574;11.170;2022-11-04T11:01:56;11.80;99.90
13409;DHT22;6775;49.574;11.170;2022-11-04T11:04:26;11.80;99.90
13409;DHT22;6775;49.574;11.170;2022-11-04T11:06:57;11.80;99.90
13409;DHT22;6775;49.574;11.170;2022-11-04T11:09:27;11.80;99.90
13409;DHT22;6775;49.574;11.170;2022-11-04T12:06:24;12.10;99.90
13409;DHT22;6775;49.574;11.170;2022-11-04T12:09:03;12.10;99.90
13409;DHT22;6775;49.574;11.170;2022-11-04T12:11:51;12.00;99.90
13409;DHT22;6775;49.574;11.170;2022-11-04T12:14:30;12.00;99.90
13409;DHT22;6775;49.574;11.170;2022-11-04T12:17:06;12.00;99.90
13409;DHT22;6775;49.574;11.170;2022-11-04T12:19:55;12.00;99.90
13409;DHT22;6775;49.574;11.170;2022-11-04T12:22:37;12.00;99.90
13409;DHT22;6775;49.574;11.170;2022-11-04T12:25:14;12.00;99.90
13409;DHT22;6775;49.574;11.170;2022-11-04T12:27:48;12.10;99.90
13409;DHT22;6775;49.574;11.170;2022-11-04T12:30:19;12.10;99.90
13409;DHT22;6775;49.574;11.170;2022-11-04T12:33:05;12.10;99.90
13409;DHT22;6775;49.574;11.170;2022-11-04T12:35:52;12.10;99.90
13409;DHT22;6775;49.574;11.170;2022-11-04T12:38:34;12.10;99.90
13409;DHT22;6775;49.574;11.170;2022-11-04T12:41:10;12.10;99.90
13409;DHT22;6775;49.574;11.170;2022-11-04T12:44:06;12.00;99.90
13409;DHT22;6775;49.574;11.170;2022-11-04T12:46:41;12.00;99.90
13409;DHT22;6775;49.574;11.170;2022-11-04T12:49:24;12.00;99.90
13409;DHT22;6775;49.574;11.170;2022-11-04T12:52:02;12.00;99.90
13409;DHT22;6775;49.574;11.170;2022-11-04T12:54:44;11.90;99.90
13409;DHT22;6775;49.574;11.170;2022-11-04T12:57:22;11.90;99.90
13409;DHT22;6775;49.574;11.170;2022-11-04T13:00:07;11.90;99.90
13409;DHT22;6775;49.574;11.170;2022-11-04T13:02:41;12.00;99.90
13409;DHT22;6775;49.574;11.170;2022-11-04T13:05:39;12.00;99.90
13409;DHT22;6775;49.574;11.170;2022-11-04T13:08:14;12.00;99.90
13409;DHT22;6775;49.574;11.170;2022-11-04T13:10:49;11.90;99.90
13409;DHT22;6775;49.574;11.170;2022-11-04T13:13:22;11.90;99.90
13409;DHT22;6775;49.574;11.170;2022-11-04T13:15:55;11.90;99.90
13409;DHT22;6775;49.574;11.170;2022-11-04T13:18:26;11.80;99.90
13409;DHT22;6775;49.574;11.170;2022-11-04T13:20:58;11.80;99.90
13409;DHT22;6775;49.574;11.170;2022-11-04T13:23:35;11.80;99.90
13409;DHT22;6775;49.574;11.170;2022-11-04T13:26:10;11.80;99.90
13409;DHT22;6775;49.574;11.170;2022-11-04T13:28:40;11.80;99.90
13409;DHT22;6775;49.574;11.170;2022-11-04T13:31:14;11.70;99.90
13409;DHT22;6775;49.574;11.170;2022-11-04T13:33:49;11.80;99.90
13409;DHT22;6775;49.574;11.170;2022-11-04T13:36:27;11.80;99.90
13409;DHT22;6775;49.574;11.170;2022-11-04T13:38:59;11.80;99.90
13409;DHT22;6775;49.574;11.170;2022-11-04T13:44:39;11.70;99.90
13409;DHT22;6775;49.574;11.170;2022-11-04T13:47:14;11.70;99.90
13409;DHT22;6775;49.574;11.170;2022-11-04T13:49:49;11.80;99.90
13409;DHT22;6775;49.574;11.170;2022-11-04T13:52:18;11.80;99.90
13409;DHT22;6775;49.574;11.170;2022-11-04T13:54:52;11.80;99.90
13409;DHT22;6775;49.574;11.170;2022-11-04T13:57:23;11.80;99.90
13409;DHT22;6775;49.574;11.170;2022-11-04T14:00:19;11.70;99.90
13409;DHT22;6775;49.574;11.170;2022-11-04T14:02:48;11.70;99.90
13409;DHT22;6775;49.574;11.170;2022-11-04T14:06:04;11.70;99.90
13409;DHT22;6775;49.574;11.170;2022-11-04T14:08:33;11.70;99.90
13409;DHT22;6775;49.574;11.170;2022-11-04T14:11:11;11.70;99.90
13409;DHT22;6775;49.574;11.170;2022-11-04T14:14:16;11.70;99.90
13409;DHT22;6775;49.574;11.170;2022-11-04T14:16:46;11.70;99.90
13409;DHT22;6775;49.574;11.170;2022-11-04T14:22:30;11.60;99.90
13409;DHT22;6775;49.574;11.170;2022-11-04T14:25:00;11.60;99.90
13409;DHT22;6775;49.574;11.170;2022-11-04T14:27:37;11.60;99.90
13409;DHT22;6775;49.574;11.170;2022-11-04T14:30:30;11.60;99.90
13409;DHT22;6775;49.574;11.170;2022-11-04T14:33:01;11.60;99.90
13409;DHT22;6775;49.574;11.170;2022-11-04T14:35:30;11.60;99.90
13409;DHT22;6775;49.574;11.170;2022-11-04T14:38:05;11.60;99.90
13409;DHT22;6775;49.574;11.170;2022-11-04T14:40:46;11.60;99.90
13409;DHT22;6775;49.574;11.170;2022-11-04T14:43:28;11.60;99.90
13409;DHT22;6775;49.574;11.170;2022-11-04T14:46:00;11.60;99.90
13409;DHT22;6775;49.574;11.170;2022-11-04T14:48:29;11.60;99.90
13409;DHT22;6775;49.574;11.170;2022-11-04T14:50:57;11.60;99.90
13409;DHT22;6775;49.574;11.170;2022-11-04T14:53:29;11.50;99.90
13409;DHT22;6775;49.574;11.170;2022-11-04T14:56:09;11.50;99.90
13409;DHT22;6775;49.574;11.170;2022-11-04T14:58:38;11.50;99.90
13409;DHT22;6775;49.574;11.170;2022-11-04T15:01:19;11.50;99.90
13409;DHT22;6775;49.574;11.170;2022-11-04T15:03:47;11.50;99.90
13409;DHT22;6775;49.574;11.170;2022-11-04T15:06:35;11.40;99.90
13409;DHT22;6775;49.574;11.170;2022-11-04T15:09:21;11.40;99.90
13409;DHT22;6775;49.574;11.170;2022-11-04T15:11:49;11.40;99.90
13409;DHT22;6775;49.574;11.170;2022-11-04T15:14:36;11.40;99.90
13409;DHT22;6775;49.574;11.170;2022-11-04T15:17:05;11.30;99.90
13409;DHT22;6775;49.574;11.170;2022-11-04T15:19:34;11.30;99.90
13409;DHT22;6775;49.574;11.170;2022-11-04T15:22:03;11.30;99.90
13409;DHT22;6775;49.574;11.170;2022-11-04T15:24:32;11.30;99.90
13409;DHT22;6775;49.574;11.170;2022-11-04T15:27:04;11.20;99.90
13409;DHT22;6775;49.574;11.170;2022-11-04T15:29:32;11.20;99.90
13409;DHT22;6775;49.574;11.170;2022-11-04T15:32:02;11.20;99.90
13409;DHT22;6775;49.574;11.170;2022-11-04T15:34:33;11.10;99.90
13409;DHT22;6775;49.574;11.170;2022-11-04T15:37:03;11.10;99.90
13409;DHT22;6775;49.574;11.170;2022-11-04T15:39:35;11.10;99.90
13409;DHT22;6775;49.574;11.170;2022-11-04T15:42:06;11.00;99.90
13409;DHT22;6775;49.574;11.170;2022-11-04T15:44:53;11.00;99.90
13409;DHT22;6775;49.574;11.170;2022-11-04T15:47:23;11.00;99.90
13409;DHT22;6775;49.574;11.170;2022-11-04T15:50:01;11.00;99.90
13409;DHT22;6775;49.574;11.170;2022-11-04T15:52:30;10.90;99.90
13409;DHT22;6775;49.574;11.170;2022-11-04T15:54:59;10.90;99.90
13409;DHT22;6775;49.574;11.170;2022-11-04T15:57:31;10.90;99.90
13409;DHT22;6775;49.574;11.170;2022-11-04T16:00:03;10.80;99.90
13409;DHT22;6775;49.574;11.170;2022-11-04T16:02:34;10.80;99.90
13409;DHT22;6775;49.574;11.170;2022-11-04T16:05:20;10.80;99.90
13409;DHT22;6775;49.574;11.170;2022-11-04T16:07:51;10.70;99.90
13409;DHT22;6775;49.574;11.170;2022-11-04T16:10:24;10.70;99.90
13409;DHT22;6775;49.574;11.170;2022-11-04T16:12:54;10.60;99.90
13409;DHT22;6775;49.574;11.170;2022-11-04T16:15:33;10.60;99.90
13409;DHT22;6775;49.574;11.170;2022-11-04T16:18:02;10.60;99.90
13409;DHT22;6775;49.574;11.170;2022-11-04T16:20:32;10.60;99.90
13409;DHT22;6775;49.574;11.170;2022-11-04T16:23:02;10.60;99.90
13409;DHT22;6775;49.574;11.170;2022-11-04T16:25:33;10.70;99.90
13409;DHT22;6775;49.574;11.170;2022-11-04T16:28:01;10.70;99.90
13409;DHT22;6775;49.574;11.170;2022-11-04T16:30:29;10.60;99.90
13409;DHT22;6775;49.574;11.170;2022-11-04T16:33:07;10.60;99.90
13409;DHT22;6775;49.574;11.170;2022-11-04T16:35:37;10.60;99.90
13409;DHT22;6775;49.574;11.170;2022-11-04T16:38:08;10.60;99.90
13409;DHT22;6775;49.574;11.170;2022-11-04T16:40:36;10.50;99.90
13409;DHT22;6775;49.574;11.170;2022-11-04T16:43:04;10.40;99.90
13409;DHT22;6775;49.574;11.170;2022-11-04T16:45:33;10.40;99.90
13409;DHT22;6775;49.574;11.170;2022-11-04T16:48:01;10.40;99.90
13409;DHT22;6775;49.574;11.170;2022-11-04T16:50:29;10.40;99.90
13409;DHT22;6775;49.574;11.170;2022-11-04T16:53:00;10.30;99.90
13409;DHT22;6775;49.574;11.170;2022-11-04T16:55:28;10.20;99.90
13409;DHT22;6775;49.574;11.170;2022-11-04T16:57:59;10.10;99.90
13409;DHT22;6775;49.574;11.170;2022-11-04T17:00:29;10.10;99.90
13409;DHT22;6775;49.574;11.170;2022-11-04T17:02:59;10.00;99.90
13409;DHT22;6775;49.574;11.170;2022-11-04T17:05:26;9.90;99.90
13409;DHT22;6775;49.574;11.170;2022-11-04T17:07:54;9.90;99.90
13409;DHT22;6775;49.574;11.170;2022-11-04T17:10:34;9.80;99.90